createdAt,value
2022-08-10T04:00:51.284Z,13.62
2022-08-10T04:05:53.805Z,13.63
2022-08-10T04:10:56.383Z,13.63
2022-08-10T04:15:58.614Z,13.52
2022-08-10T04:21:08.717Z,13.52
2022-08-10T04:26:12.613Z,13.68
2022-08-10T04:31:17.654Z,13.62
2022-08-10T04:36:22.079Z,13.57
2022-08-10T04:41:25.381Z,13.78
2022-08-10T04:46:42.675Z,13.98
2022-08-10T04:51:50.073Z,14.14
2022-08-10T04:56:52.371Z,14.41
2022-08-10T05:02:30.043Z,14.64
2022-08-10T05:07:18.459Z,15.01
2022-08-10T05:12:21.155Z,15.11
2022-08-10T05:17:23.708Z,15.41
2022-08-10T05:22:26.013Z,15.78
2022-08-10T05:27:28.592Z,16.08
2022-08-10T05:32:55.312Z,16.31
2022-08-10T05:38:08.898Z,16.50
2022-08-10T05:43:21.170Z,16.68
2022-08-10T05:48:54.415Z,16.87
2022-08-10T05:54:03.407Z,17.04
2022-08-10T05:59:07.730Z,17.25
2022-08-10T06:04:13.538Z,17.48
2022-08-10T06:09:17.405Z,17.65
2022-08-10T06:14:39.401Z,17.89
2022-08-10T06:19:50.955Z,18.16
2022-08-10T06:25:23.138Z,18.42
2022-08-10T06:30:20.558Z,18.67
2022-08-10T06:35:27.880Z,18.92
2022-08-10T06:40:36.651Z,19.25
2022-08-10T06:45:47.466Z,19.49
2022-08-10T06:51:18.135Z,19.78
2022-08-10T06:56:35.801Z,20.17
2022-08-10T07:01:43.591Z,20.48
2022-08-10T07:06:56.975Z,20.89
2022-08-10T07:12:07.959Z,21.19
2022-08-10T07:17:15.963Z,21.39
2022-08-10T07:23:22.823Z,21.73
2022-08-10T07:27:59.785Z,22.39
2022-08-10T07:33:05.421Z,23.01
2022-08-10T07:38:10.609Z,23.43
2022-08-10T07:43:14.226Z,23.87
2022-08-10T07:48:21.732Z,24.48
2022-08-10T07:53:27.256Z,26.19
2022-08-10T07:58:35.869Z,27.99
2022-08-10T08:03:40.423Z,29.61
2022-08-10T08:08:44.287Z,31.65
2022-08-10T08:13:48.185Z,35.38
2022-08-10T08:19:23.900Z,45.08
2022-08-10T08:24:32.935Z,54.35
2022-08-10T08:29:39.252Z,61.94
2022-08-10T08:34:44.072Z,65.69
2022-08-10T08:39:47.267Z,63.68
2022-08-10T08:45:17.169Z,49.51
2022-08-10T08:50:57.964Z,40.77
2022-08-10T08:56:10.009Z,38.63
2022-08-10T09:01:40.463Z,38.40
2022-08-10T09:06:46.370Z,38.65
2022-08-10T09:12:10.448Z,38.69
2022-08-10T09:17:38.555Z,37.86
2022-08-10T09:22:57.221Z,38.77
2022-08-10T09:28:09.496Z,39.69
2022-08-10T09:36:26.173Z,41.05
2022-08-10T09:40:55.857Z,41.68
2022-08-10T09:44:57.654Z,42.56
2022-08-10T09:50:04.476Z,42.59
2022-08-10T09:55:20.678Z,43.57
2022-08-10T10:00:30.624Z,44.71
2022-08-10T10:06:03.517Z,44.86
2022-08-10T10:11:21.106Z,45.03
2022-08-10T10:16:32.915Z,45.22
2022-08-10T10:22:07.658Z,44.97
2022-08-10T10:27:50.103Z,45.74
2022-08-10T10:33:01.139Z,45.47
2022-08-10T10:38:07.738Z,45.52
2022-08-10T10:43:16.355Z,45.26
2022-08-10T10:48:41.564Z,44.72
2022-08-10T10:54:02.509Z,43.00
2022-08-10T10:59:55.181Z,41.79
2022-08-10T11:05:04.909Z,42.08
2022-08-10T11:10:34.209Z,42.03
2022-08-10T11:15:47.598Z,42.19
2022-08-10T11:21:04.240Z,42.32
2022-08-10T11:26:24.400Z,42.28
2022-08-10T11:31:43.248Z,41.82
2022-08-10T11:37:16.354Z,40.60
2022-08-10T11:42:36.325Z,39.92
2022-08-10T11:47:54.180Z,39.52
2022-08-10T11:53:14.999Z,38.71
2022-08-10T11:58:36.521Z,38.62
2022-08-10T12:03:41.523Z,39.16
2022-08-10T12:10:11.122Z,39.43
2022-08-10T12:14:24.266Z,39.85
2022-08-10T12:19:59.920Z,39.90
2022-08-10T12:31:25.020Z,40.17
2022-08-10T12:36:50.774Z,40.03
2022-08-10T12:43:13.568Z,39.37
2022-08-10T13:52:32.063Z,36.29
2022-08-10T13:57:35.830Z,36.42
2022-08-10T14:02:59.931Z,35.93
2022-08-10T14:08:05.545Z,35.49
2022-08-10T14:13:10.171Z,35.71
2022-08-10T14:18:13.875Z,35.65
2022-08-10T14:23:16.524Z,35.47
2022-08-10T14:28:21.946Z,35.29
2022-08-10T14:33:25.218Z,35.05
2022-08-10T14:38:31.803Z,34.44
2022-08-10T14:43:41.735Z,34.43
2022-08-10T14:48:47.304Z,34.30
2022-08-10T14:53:55.759Z,34.34
2022-08-10T14:59:07.001Z,33.99
2022-08-10T15:04:13.112Z,33.46
2022-08-10T15:09:20.207Z,32.19
2022-08-10T15:14:41.471Z,32.37
2022-08-10T15:20:03.696Z,32.75
2022-08-10T15:25:25.246Z,32.92
2022-08-10T15:30:31.407Z,33.22
2022-08-10T15:35:54.634Z,33.20
2022-08-10T15:40:58.899Z,33.19
2022-08-10T15:46:09.713Z,33.20
2022-08-10T15:51:33.853Z,33.12
2022-08-10T15:56:56.699Z,33.02
2022-08-10T16:02:16.113Z,32.85
2022-08-10T16:07:42.909Z,32.10
2022-08-10T16:12:59.910Z,31.74
2022-08-10T16:18:12.505Z,31.64
2022-08-10T16:23:19.043Z,31.52
2022-08-10T16:28:29.298Z,31.13
2022-08-10T16:33:53.644Z,31.20
2022-08-10T16:38:58.895Z,31.18
2022-08-10T16:44:02.380Z,31.02
2022-08-10T16:49:05.746Z,31.10
2022-08-10T16:54:10.528Z,30.86
2022-08-10T16:59:17.761Z,30.82
2022-08-10T17:04:24.936Z,30.70
2022-08-10T17:09:30.251Z,30.59
2022-08-10T17:14:32.830Z,30.26
2022-08-10T17:19:39.605Z,30.01
2022-08-10T17:24:47.840Z,29.67
2022-08-10T17:30:03.863Z,29.40
2022-08-10T17:35:12.392Z,28.99
2022-08-10T17:40:22.775Z,28.67
2022-08-10T17:45:47.467Z,28.35
2022-08-10T17:50:52.440Z,28.08
2022-08-10T17:55:57.903Z,27.82
2022-08-10T18:01:38.690Z,27.61
2022-08-10T18:06:25.691Z,27.35
2022-08-10T18:11:33.101Z,27.07
2022-08-10T18:16:41.816Z,26.86
2022-08-10T18:21:48.800Z,26.65
2022-08-10T18:26:54.109Z,26.41
2022-08-10T18:31:59.448Z,26.20
2022-08-10T18:37:05.092Z,25.95
2022-08-10T18:42:35.662Z,25.79
2022-08-10T18:47:58.950Z,25.57
2022-08-10T18:53:15.260Z,25.39
2022-08-10T18:58:50.277Z,25.21
2022-08-10T19:04:29.474Z,25.06
2022-08-10T19:09:53.246Z,24.82
2022-08-10T19:15:17.807Z,24.71
2022-08-10T19:20:31.636Z,24.54
2022-08-10T19:26:36.500Z,24.37
2022-08-10T19:31:41.866Z,24.19
2022-08-10T19:36:49.226Z,24.04
2022-08-10T19:42:15.816Z,23.90
2022-08-10T19:47:17.990Z,23.78
2022-08-10T19:52:47.790Z,23.60
2022-08-10T19:58:07.587Z,23.46
2022-08-10T20:03:49.305Z,23.38
2022-08-10T20:09:10.639Z,23.25
2022-08-10T20:14:23.066Z,23.12
2022-08-10T20:19:52.839Z,23.02
2022-08-10T20:25:14.126Z,22.92
2022-08-10T20:30:17.220Z,22.83
2022-08-10T20:35:31.280Z,22.74
2022-08-10T20:40:59.770Z,22.59
2022-08-10T20:46:24.993Z,22.55
2022-08-10T20:51:58.811Z,22.50
2022-08-10T20:57:55.808Z,22.30
2022-08-10T21:02:57.877Z,22.20
2022-08-10T21:08:27.393Z,22.09
2022-08-10T21:13:56.725Z,21.89
2022-08-10T21:19:27.006Z,21.77
2022-08-10T21:24:45.892Z,21.71
2022-08-10T21:30:09.537Z,21.56
2022-08-10T21:35:44.498Z,21.51
2022-08-10T21:41:17.632Z,21.55
